createdAt,value
2022-09-15T00:01:10.050Z,0.50
2022-09-15T00:03:37.530Z,0.50
2022-09-15T00:06:05.502Z,0.68
2022-09-15T00:08:32.563Z,0.50
2022-09-15T00:11:17.257Z,0.40
2022-09-15T00:13:45.311Z,0.50
2022-09-15T00:16:15.236Z,0.90
2022-09-15T00:18:44.730Z,0.80
2022-09-15T00:21:18.913Z,0.57
2022-09-15T00:23:46.991Z,0.70
2022-09-15T00:26:19.238Z,0.40
2022-09-15T00:28:46.425Z,0.45
2022-09-15T00:31:17.126Z,0.70
2022-09-15T00:33:48.726Z,0.40
2022-09-15T00:36:17.017Z,0.55
2022-09-15T00:38:44.635Z,0.93
2022-09-15T00:41:15.123Z,0.40
2022-09-15T00:43:47.787Z,0.60
2022-09-15T00:46:19.992Z,0.50
2022-09-15T00:49:26.339Z,0.30
2022-09-15T00:52:16.078Z,0.40
2022-09-15T00:54:52.819Z,0.55
2022-09-15T00:57:28.361Z,0.50
2022-09-15T01:00:00.344Z,0.35
2022-09-15T01:02:34.348Z,0.68
2022-09-15T01:05:10.487Z,0.55
2022-09-15T01:07:59.082Z,0.50
2022-09-15T01:10:28.704Z,0.45
2022-09-15T01:13:00.333Z,0.50
2022-09-15T01:16:01.843Z,0.75
2022-09-15T01:19:14.861Z,0.40
2022-09-15T01:21:56.805Z,0.55
2022-09-15T01:25:02.736Z,0.50
2022-09-15T01:27:50.577Z,0.40
2022-09-15T01:30:21.768Z,0.70
2022-09-15T01:33:28.929Z,1.02
2022-09-15T01:36:07.315Z,0.60
2022-09-15T01:39:06.919Z,0.60
2022-09-15T01:42:10.262Z,0.50
2022-09-15T01:44:51.812Z,0.40
2022-09-15T01:47:21.350Z,0.55
2022-09-15T01:49:59.397Z,0.80
2022-09-15T01:52:28.051Z,0.47
2022-09-15T01:55:00.391Z,0.47
2022-09-15T01:57:28.056Z,0.73
2022-09-15T01:59:56.531Z,0.50
2022-09-15T02:02:30.678Z,0.50
2022-09-15T02:05:25.271Z,0.68
2022-09-15T02:07:58.986Z,0.68
2022-09-15T02:11:03.352Z,0.77
2022-09-15T02:14:14.257Z,0.40
2022-09-15T02:16:48.502Z,0.70
2022-09-15T02:19:41.127Z,0.73
2022-09-15T02:22:27.919Z,0.70
2022-09-15T02:25:03.013Z,0.70
2022-09-15T02:27:37.772Z,0.50
2022-09-15T02:30:11.858Z,0.50
2022-09-15T02:32:54.434Z,1.10
2022-09-15T02:35:23.452Z,0.57
2022-09-15T02:37:51.881Z,0.80
2022-09-15T02:40:19.226Z,0.75
2022-09-15T02:42:55.870Z,0.60
2022-09-15T02:45:27.121Z,0.75
2022-09-15T02:47:54.085Z,0.63
2022-09-15T02:50:20.985Z,0.70
2022-09-15T02:52:47.761Z,0.60
2022-09-15T02:55:15.798Z,0.95
2022-09-15T02:57:42.598Z,0.65
2022-09-15T03:00:13.699Z,0.70
2022-09-15T03:02:52.386Z,0.63
2022-09-15T03:05:23.754Z,0.70
2022-09-15T03:07:51.566Z,0.65
2022-09-15T03:10:18.645Z,0.82
2022-09-15T03:12:51.761Z,0.50
2022-09-15T03:15:25.207Z,0.60
2022-09-15T03:17:53.561Z,0.73
2022-09-15T03:20:27.691Z,0.55
2022-09-15T03:22:54.753Z,0.63
2022-09-15T03:25:21.934Z,0.70
2022-09-15T03:27:48.737Z,0.65
2022-09-15T03:30:15.626Z,0.77
2022-09-15T03:32:42.482Z,0.80
2022-09-15T03:35:09.988Z,0.50
2022-09-15T03:37:37.197Z,0.60
2022-09-15T03:40:05.250Z,0.40
2022-09-15T03:42:32.316Z,0.60
2022-09-15T03:44:59.188Z,0.63
2022-09-15T03:47:26.109Z,0.50
2022-09-15T03:49:52.952Z,0.50
2022-09-15T03:52:19.765Z,0.57
2022-09-15T03:54:48.972Z,0.40
2022-09-15T03:57:18.366Z,0.60
2022-09-15T03:59:45.237Z,0.60
2022-09-15T04:02:12.141Z,0.60
2022-09-15T04:04:38.954Z,0.50
2022-09-15T04:07:05.805Z,0.65
2022-09-15T04:09:32.666Z,0.40
2022-09-15T04:11:59.466Z,0.80
2022-09-15T04:14:26.286Z,0.55
2022-09-15T04:16:53.147Z,0.50
2022-09-15T04:19:20.204Z,0.35
2022-09-15T04:21:47.482Z,0.57
2022-09-15T04:24:14.503Z,0.40
2022-09-15T04:26:41.345Z,0.40
2022-09-15T04:29:14.936Z,0.80
2022-09-15T04:31:42.464Z,0.38
2022-09-15T04:34:09.398Z,0.30
2022-09-15T04:36:36.441Z,0.40
2022-09-15T04:39:06.042Z,0.60
2022-09-15T04:41:33.659Z,0.40
2022-09-15T04:44:01.104Z,0.38
2022-09-15T04:46:28.063Z,0.50
2022-09-15T04:48:56.574Z,0.40
2022-09-15T04:51:24.396Z,0.50
2022-09-15T04:53:51.975Z,0.40
2022-09-15T04:56:25.659Z,0.30
2022-09-15T04:59:02.481Z,0.40
2022-09-15T05:01:35.380Z,0.30
2022-09-15T05:04:04.421Z,0.32
2022-09-15T05:06:32.130Z,0.35
2022-09-15T05:08:58.998Z,0.50
2022-09-15T05:11:27.064Z,0.30
2022-09-15T05:13:54.425Z,0.20
2022-09-15T05:16:25.009Z,0.20
2022-09-15T05:18:54.532Z,0.30
2022-09-15T05:21:23.379Z,0.30
2022-09-15T05:23:54.221Z,0.75
2022-09-15T05:28:57.610Z,0.40
2022-09-15T05:33:54.805Z,0.30
2022-09-15T05:36:25.266Z,0.30
2022-09-15T05:38:56.805Z,0.30
2022-09-15T05:41:24.578Z,0.55
2022-09-15T05:43:52.247Z,0.20
2022-09-15T05:46:20.527Z,0.30
2022-09-15T05:48:47.644Z,0.43
2022-09-15T05:51:15.218Z,0.35
2022-09-15T05:53:42.295Z,0.30
2022-09-15T05:56:13.453Z,0.20
2022-09-15T05:58:43.007Z,0.30
2022-09-15T06:01:19.008Z,0.30
2022-09-15T06:03:47.531Z,0.20
2022-09-15T06:06:14.782Z,0.50
2022-09-15T06:08:56.878Z,0.40
2022-09-15T06:11:28.880Z,0.40
2022-09-15T06:13:56.245Z,0.20
2022-09-15T06:16:24.840Z,0.38
2022-09-15T06:18:53.800Z,0.30
2022-09-15T06:21:25.493Z,0.30
2022-09-15T06:23:57.575Z,0.30
2022-09-15T06:26:25.424Z,0.30
2022-09-15T06:28:59.628Z,0.77
2022-09-15T06:31:29.487Z,0.30
2022-09-15T06:33:57.720Z,0.20
2022-09-15T06:36:28.685Z,0.50
2022-09-15T06:38:55.919Z,0.30
2022-09-15T06:41:23.609Z,0.30
2022-09-15T06:43:50.466Z,0.35
2022-09-15T06:46:24.975Z,0.38
2022-09-15T06:48:53.487Z,0.40
2022-09-15T06:51:23.931Z,0.40
2022-09-15T06:53:50.996Z,0.40
2022-09-15T06:56:21.539Z,0.30
2022-09-15T06:58:49.359Z,0.52
2022-09-15T07:01:34.361Z,0.40
2022-09-15T07:04:05.638Z,0.28
2022-09-15T07:06:34.208Z,0.52
2022-09-15T07:09:02.525Z,0.30
2022-09-15T07:11:30.856Z,0.80
2022-09-15T07:13:58.071Z,0.57
2022-09-15T07:16:25.852Z,0.90
2022-09-15T07:18:56.968Z,0.32
2022-09-15T07:21:24.656Z,0.40
2022-09-15T07:23:51.990Z,0.30
2022-09-15T07:26:23.721Z,0.30
2022-09-15T07:29:10.745Z,0.40
2022-09-15T07:31:39.023Z,0.30
2022-09-15T07:34:06.621Z,0.35
2022-09-15T07:36:33.871Z,0.40
2022-09-15T07:39:00.738Z,0.43
2022-09-15T07:41:31.861Z,0.30
2022-09-15T07:44:00.984Z,0.50
2022-09-15T07:46:32.168Z,0.40
2022-09-15T07:49:00.654Z,0.30
2022-09-15T07:51:27.430Z,0.30
2022-09-15T07:53:54.802Z,0.52
2022-09-15T07:56:23.936Z,0.50
2022-09-15T07:58:51.985Z,0.50
2022-09-15T08:01:20.445Z,0.40
2022-09-15T08:03:50.615Z,0.40
2022-09-15T08:06:21.537Z,0.50
2022-09-15T08:08:51.731Z,0.35
2022-09-15T08:11:21.180Z,0.65
2022-09-15T08:13:50.521Z,1.00
2022-09-15T08:16:25.058Z,0.65
2022-09-15T08:18:54.092Z,0.40
2022-09-15T08:21:22.390Z,0.40
2022-09-15T08:23:58.934Z,0.57
2022-09-15T08:26:28.163Z,0.40
2022-09-15T08:28:55.051Z,0.32
2022-09-15T08:31:24.040Z,0.40
2022-09-15T08:33:54.008Z,0.35
2022-09-15T08:36:21.460Z,0.40
2022-09-15T08:38:48.791Z,0.38
2022-09-15T08:41:33.518Z,0.38
2022-09-15T08:44:21.994Z,0.43
2022-09-15T08:47:00.797Z,0.38
2022-09-15T08:49:59.518Z,0.52
2022-09-15T08:52:52.182Z,0.60
2022-09-15T08:55:49.240Z,0.40
2022-09-15T08:58:27.025Z,0.38
2022-09-15T09:01:10.650Z,0.30
2022-09-15T09:03:37.526Z,0.38
2022-09-15T09:06:27.663Z,0.40
2022-09-15T09:09:07.958Z,0.35
2022-09-15T09:12:08.985Z,0.30
2022-09-15T09:15:13.891Z,0.30
2022-09-15T09:18:37.880Z,0.28
2022-09-15T09:21:38.443Z,0.40
2022-09-15T09:24:14.944Z,0.43
2022-09-15T09:26:42.004Z,0.45
2022-09-15T09:29:19.995Z,0.32
2022-09-15T09:31:51.188Z,0.40
2022-09-15T09:35:15.857Z,0.35
2022-09-15T09:37:42.970Z,0.30
2022-09-15T09:40:15.522Z,0.40
2022-09-15T09:42:44.672Z,0.30
2022-09-15T09:45:18.659Z,0.40
2022-09-15T09:47:48.948Z,0.45
2022-09-15T09:50:43.119Z,0.60
2022-09-15T09:53:33.688Z,0.20
2022-09-15T09:56:15.075Z,0.40
2022-09-15T09:58:41.871Z,0.30
2022-09-15T10:01:16.984Z,0.43
2022-09-15T10:03:45.222Z,0.38
2022-09-15T10:06:13.984Z,0.30
2022-09-15T10:09:03.533Z,0.35
2022-09-15T10:11:49.934Z,0.60
2022-09-15T10:14:38.442Z,0.45
2022-09-15T10:17:15.508Z,0.38
2022-09-15T10:19:55.939Z,0.77
2022-09-15T10:22:31.209Z,0.68
2022-09-15T10:25:00.549Z,0.30
2022-09-15T10:27:34.556Z,0.22
2022-09-15T10:30:18.906Z,0.50
2022-09-15T10:32:45.856Z,0.40
2022-09-15T10:35:16.715Z,0.30
2022-09-15T10:38:13.024Z,0.30
2022-09-15T10:40:54.612Z,0.20
2022-09-15T10:43:46.210Z,0.30
2022-09-15T10:46:44.013Z,0.82
2022-09-15T10:49:50.579Z,0.30
2022-09-15T10:52:28.982Z,0.30
2022-09-15T10:55:37.059Z,0.30
2022-09-15T10:58:31.782Z,0.30
2022-09-15T11:01:30.235Z,0.60
2022-09-15T11:04:38.549Z,0.30
2022-09-15T11:07:46.197Z,0.20
2022-09-15T11:10:48.534Z,0.20
2022-09-15T11:13:43.350Z,0.30
2022-09-15T11:17:02.374Z,0.30
2022-09-15T11:20:30.052Z,0.40
2022-09-15T11:23:34.255Z,0.30
2022-09-15T11:26:19.979Z,0.40
2022-09-15T11:29:07.325Z,0.40
2022-09-15T11:31:44.108Z,0.25
2022-09-15T11:34:34.648Z,0.30
2022-09-15T11:37:13.996Z,0.40
2022-09-15T11:40:07.346Z,0.40
2022-09-15T11:42:49.307Z,0.30
2022-09-15T11:45:25.564Z,0.30
2022-09-15T11:48:04.286Z,0.30
2022-09-15T11:50:38.225Z,0.30
2022-09-15T11:53:33.189Z,0.30
2022-09-15T11:56:11.816Z,0.40
2022-09-15T11:59:03.748Z,0.40
2022-09-15T12:02:10.346Z,0.40
2022-09-15T12:04:49.150Z,0.20
2022-09-15T12:07:25.142Z,0.30
2022-09-15T12:09:52.255Z,0.38
2022-09-15T12:12:22.557Z,0.50
2022-09-15T12:14:52.380Z,0.60
2022-09-15T12:17:48.972Z,0.40
2022-09-15T12:21:03.375Z,0.30
2022-09-15T12:23:42.073Z,0.65
2022-09-15T12:26:21.732Z,0.52
2022-09-15T12:29:04.359Z,0.40
2022-09-15T12:31:33.937Z,0.20
2022-09-15T12:34:24.821Z,0.20
2022-09-15T12:37:13.891Z,0.20
2022-09-15T12:39:43.387Z,0.30
2022-09-15T12:42:22.074Z,0.30
2022-09-15T12:45:02.270Z,0.30
2022-09-15T12:47:50.779Z,0.55
2022-09-15T12:50:25.530Z,0.20
2022-09-15T12:53:00.147Z,0.50
2022-09-15T12:55:37.353Z,0.20
2022-09-15T12:58:18.573Z,0.20
2022-09-15T13:01:13.968Z,0.25
2022-09-15T13:06:26.691Z,0.20
2022-09-15T13:09:02.334Z,0.20
2022-09-15T13:11:37.302Z,0.20
2022-09-15T13:14:04.485Z,0.20
2022-09-15T13:16:40.305Z,0.30
2022-09-15T13:19:41.291Z,0.22
2022-09-15T13:22:11.225Z,0.20
2022-09-15T13:24:59.263Z,0.45
2022-09-15T13:28:08.739Z,0.10
2022-09-15T13:31:13.234Z,0.20
2022-09-15T13:38:15.191Z,0.20
2022-09-15T13:40:57.641Z,0.38
2022-09-15T13:43:41.154Z,0.32
2022-09-15T13:46:51.126Z,0.20
2022-09-15T13:50:24.737Z,0.20
2022-09-15T13:53:20.531Z,0.22
2022-09-15T13:55:48.356Z,0.40
2022-09-15T14:01:08.504Z,0.30
2022-09-15T14:03:48.319Z,0.20
2022-09-15T14:06:33.532Z,0.10
2022-09-15T14:09:13.587Z,0.20
2022-09-15T14:11:42.218Z,0.20
2022-09-15T14:14:36.508Z,0.22
2022-09-15T14:17:04.185Z,0.30
2022-09-15T14:19:37.799Z,0.20
2022-09-15T14:22:32.120Z,0.28
2022-09-15T14:25:06.096Z,0.40
2022-09-15T14:27:36.481Z,0.20
2022-09-15T14:30:09.029Z,0.20
2022-09-15T14:32:43.889Z,0.20
2022-09-15T14:35:23.351Z,0.43
2022-09-15T14:37:56.685Z,0.30
2022-09-15T14:40:37.713Z,0.40
2022-09-15T14:43:30.479Z,0.47
2022-09-15T14:46:10.774Z,0.20
2022-09-15T14:48:38.181Z,0.43
2022-09-15T14:51:25.151Z,0.30
2022-09-15T14:53:58.238Z,0.28
2022-09-15T14:56:33.164Z,0.40
2022-09-15T14:59:24.104Z,0.20
2022-09-15T15:04:40.646Z,0.22
2022-09-15T15:10:00.146Z,0.50
2022-09-15T15:12:32.271Z,0.20
2022-09-15T15:15:00.463Z,0.30
2022-09-15T15:17:48.868Z,0.30
2022-09-15T15:20:32.870Z,0.40
2022-09-15T15:23:23.228Z,0.20
2022-09-15T15:25:50.608Z,0.30
2022-09-15T15:28:37.558Z,0.20
2022-09-15T15:31:25.058Z,0.40
2022-09-15T15:34:05.444Z,0.30
2022-09-15T15:36:35.652Z,0.40
2022-09-15T15:39:07.119Z,0.30
2022-09-15T15:41:40.907Z,0.40
2022-09-15T15:44:27.805Z,0.40
2022-09-15T15:47:17.927Z,0.30
2022-09-15T15:50:11.829Z,0.40
2022-09-15T15:52:31.475Z,0.40
2022-09-15T15:54:58.266Z,0.40
2022-09-15T15:57:33.093Z,0.30
2022-09-15T16:00:00.905Z,0.30
2022-09-15T16:02:28.242Z,0.35
2022-09-15T16:04:55.236Z,0.30
2022-09-15T16:07:24.364Z,0.32
2022-09-15T16:09:51.534Z,0.30
2022-09-15T16:12:18.352Z,0.50
2022-09-15T16:14:45.215Z,0.57
2022-09-15T16:17:12.040Z,0.50
2022-09-15T16:19:39.186Z,0.60
2022-09-15T16:22:06.041Z,0.60
2022-09-15T16:24:33.160Z,0.73
2022-09-15T16:26:59.921Z,0.50
2022-09-15T16:29:31.253Z,0.50
2022-09-15T16:31:58.808Z,0.50
2022-09-15T16:34:25.665Z,0.40
2022-09-15T16:36:52.429Z,0.38
2022-09-15T16:39:19.222Z,0.40
2022-09-15T16:41:46.009Z,0.50
2022-09-15T16:44:19.919Z,0.73
2022-09-15T16:46:46.730Z,0.40
2022-09-15T16:49:13.605Z,0.38
2022-09-15T16:51:40.423Z,0.65
2022-09-15T16:54:20.408Z,0.45
2022-09-15T16:56:47.349Z,0.70
2022-09-15T16:59:14.418Z,0.60
2022-09-15T17:01:41.365Z,0.70
2022-09-15T17:04:19.041Z,0.65
2022-09-15T17:06:45.964Z,0.70
2022-09-15T17:09:12.795Z,0.95
2022-09-15T17:11:39.775Z,0.90
2022-09-15T17:14:07.406Z,0.70
2022-09-15T17:16:34.245Z,0.77
2022-09-15T17:19:01.026Z,0.90
2022-09-15T17:21:27.917Z,0.95
2022-09-15T17:23:54.674Z,0.98
2022-09-15T17:26:30.511Z,1.10
2022-09-15T17:28:58.432Z,1.02
2022-09-15T17:31:25.826Z,1.30
2022-09-15T17:33:53.062Z,1.20
2022-09-15T17:36:20.410Z,1.10
2022-09-15T17:38:51.096Z,1.27
2022-09-15T17:41:22.820Z,1.45
2022-09-15T17:43:49.704Z,1.00
2022-09-15T17:46:16.842Z,1.10
2022-09-15T17:48:43.778Z,1.02
2022-09-15T17:51:19.675Z,1.27
2022-09-15T17:53:47.630Z,1.58
2022-09-15T17:56:14.648Z,1.50
2022-09-15T17:58:41.828Z,1.35
2022-09-15T18:01:13.396Z,1.60
2022-09-15T18:03:42.006Z,1.60
2022-09-15T18:06:10.414Z,1.33
2022-09-15T18:08:38.009Z,1.13
2022-09-15T18:11:06.725Z,1.45
2022-09-15T18:13:34.030Z,1.80
2022-09-15T18:16:13.713Z,1.50
2022-09-15T18:18:41.405Z,1.75
2022-09-15T18:21:20.982Z,1.50
2022-09-15T18:23:47.969Z,1.30
2022-09-15T18:26:14.805Z,1.55
2022-09-15T18:28:41.572Z,1.70
2022-09-15T18:31:12.904Z,1.52
2022-09-15T18:33:39.827Z,1.55
2022-09-15T18:36:08.261Z,1.10
2022-09-15T18:38:35.133Z,1.45
2022-09-15T18:41:02.205Z,1.48
2022-09-15T18:43:28.963Z,1.88
2022-09-15T18:46:00.671Z,1.80
2022-09-15T18:48:27.530Z,1.40
2022-09-15T18:50:55.008Z,1.80
2022-09-15T18:53:22.530Z,1.95
2022-09-15T18:55:49.462Z,1.70
2022-09-15T18:58:17.700Z,1.60
2022-09-15T19:00:46.253Z,1.60
2022-09-15T19:03:14.176Z,1.67
2022-09-15T19:05:41.741Z,1.50
2022-09-15T19:08:09.228Z,1.60
2022-09-15T19:10:38.263Z,1.83
2022-09-15T19:13:05.404Z,1.55
2022-09-15T19:15:34.515Z,1.63
2022-09-15T19:18:02.015Z,1.67
2022-09-15T19:20:29.255Z,2.15
2022-09-15T19:22:57.855Z,1.85
2022-09-15T19:25:24.678Z,2.72
2022-09-15T19:27:51.582Z,1.40
2022-09-15T19:30:18.473Z,1.73
2022-09-15T19:32:45.321Z,1.33
2022-09-15T19:35:12.315Z,1.70
2022-09-15T19:37:41.821Z,1.95
2022-09-15T19:40:13.353Z,1.50
2022-09-15T19:42:42.703Z,1.60
2022-09-15T19:45:11.639Z,2.03
2022-09-15T19:47:39.690Z,1.70
2022-09-15T19:50:08.653Z,2.00
2022-09-15T19:52:35.576Z,1.50
2022-09-15T19:55:03.423Z,1.73
2022-09-15T19:57:30.329Z,2.13
2022-09-15T19:59:57.261Z,1.90
2022-09-15T20:02:24.174Z,1.70
2022-09-15T20:04:51.012Z,1.95
2022-09-15T20:07:17.880Z,1.48
2022-09-15T20:09:44.769Z,1.48
2022-09-15T20:12:11.585Z,1.80
2022-09-15T20:14:38.691Z,2.60
2022-09-15T20:17:05.626Z,1.70
2022-09-15T20:19:32.649Z,1.75
2022-09-15T20:21:59.483Z,1.25
2022-09-15T20:24:26.499Z,1.30
2022-09-15T20:26:53.677Z,1.75
2022-09-15T20:29:21.483Z,1.65
2022-09-15T20:31:48.647Z,1.52
2022-09-15T20:34:16.549Z,1.90
2022-09-15T20:36:43.707Z,1.48
2022-09-15T20:39:14.351Z,1.67
2022-09-15T20:41:46.394Z,1.63
2022-09-15T20:44:14.219Z,1.75
2022-09-15T20:46:41.231Z,1.63
2022-09-15T20:49:09.315Z,1.58
2022-09-15T20:51:36.271Z,1.60
2022-09-15T20:54:05.062Z,1.35
2022-09-15T20:56:35.090Z,1.58
2022-09-15T20:59:04.390Z,1.45
2022-09-15T21:01:37.474Z,1.35
2022-09-15T21:04:06.519Z,1.80
2022-09-15T21:06:34.231Z,1.58
2022-09-15T21:09:01.291Z,1.45
2022-09-15T21:11:29.574Z,1.83
2022-09-15T21:13:57.461Z,1.48
2022-09-15T21:16:28.179Z,1.70
2022-09-15T21:18:58.094Z,1.45
2022-09-15T21:21:30.077Z,1.73
2022-09-15T21:24:04.023Z,1.42
2022-09-15T21:26:59.377Z,1.85
2022-09-15T21:29:27.740Z,1.70
2022-09-15T21:31:55.845Z,1.73
2022-09-15T21:34:23.929Z,1.65
2022-09-15T21:36:51.779Z,1.77
2022-09-15T21:39:18.658Z,2.17
2022-09-15T21:41:45.618Z,2.10
2022-09-15T21:44:12.433Z,1.80
2022-09-15T21:46:40.068Z,2.45
2022-09-15T21:49:06.938Z,2.10
2022-09-15T21:51:33.870Z,1.98
2022-09-15T21:54:01.069Z,1.90
2022-09-15T21:56:29.795Z,1.95
2022-09-15T21:58:56.805Z,1.50
2022-09-15T22:01:27.787Z,1.83
2022-09-15T22:04:01.989Z,2.08
2022-09-15T22:06:35.632Z,2.10
2022-09-15T22:09:15.922Z,1.80
2022-09-15T22:11:43.785Z,1.88
2022-09-15T22:14:11.853Z,1.52
2022-09-15T22:16:41.483Z,1.92
2022-09-15T22:19:11.496Z,1.42
2022-09-15T22:21:41.664Z,1.85
2022-09-15T22:24:12.801Z,2.03
2022-09-15T22:29:08.220Z,1.52
2022-09-15T22:31:35.915Z,2.08
2022-09-15T22:34:03.730Z,1.80
2022-09-15T22:36:31.720Z,1.95
2022-09-15T22:39:06.330Z,1.98
2022-09-15T22:41:37.229Z,1.98
2022-09-15T22:44:06.392Z,1.50
2022-09-15T22:46:33.950Z,1.67
2022-09-15T22:49:01.348Z,2.20
2022-09-15T22:51:28.483Z,2.05
2022-09-15T22:53:56.963Z,1.80
2022-09-15T22:56:26.272Z,1.85
2022-09-15T22:58:54.439Z,1.90
2022-09-15T23:01:25.117Z,2.05
2022-09-15T23:03:55.662Z,1.83
2022-09-15T23:06:24.119Z,1.92
2022-09-15T23:08:54.059Z,2.08
2022-09-15T23:11:21.689Z,1.73
2022-09-15T23:13:49.263Z,1.83
2022-09-15T23:16:16.880Z,2.15
2022-09-15T23:18:44.179Z,1.73
2022-09-15T23:21:13.403Z,1.80
2022-09-15T23:23:46.557Z,1.90
2022-09-15T23:26:14.120Z,1.92
2022-09-15T23:28:41.622Z,2.22
2022-09-15T23:31:12.307Z,1.90
2022-09-15T23:33:40.075Z,1.58
2022-09-15T23:36:12.138Z,1.90
2022-09-15T23:38:41.818Z,1.80
2022-09-15T23:41:10.938Z,2.17
2022-09-15T23:43:37.798Z,1.92
2022-09-15T23:46:05.194Z,2.10
2022-09-15T23:48:32.546Z,2.30
2022-09-15T23:51:00.918Z,2.08
2022-09-15T23:53:28.039Z,2.05
2022-09-15T23:55:54.896Z,1.95
2022-09-15T23:58:21.744Z,1.80
